• Join FlightAware (Why Join?)
  • Login
  • US Flag 
10:40PM EDT


 

Airport Tracker/Info


-or-


 

Live Flight TrackerFlight Track Log ✈ AWE3418 ✈ 12-Apr-2013 ✈ KCMH - KPHL

Flight Track Log - Related Links

Times and Time Zones

All times are in EDT time to prevent confusion due to time zone crossing. See the AWE3418 flight status page for this flight to view local times or setup timezone preferences in your user account.

Time Position Orientation Groundspeed Altitude Reporting Facility
EDT Latitude Longitude Course Direction KTS MPH feet Rate Location/Type
05:21PM 40.0022 -82.9128 75° East 150 173 1,500  Level Indianapolis Center
05:22PM 40.0044 -82.9758 273° West 177 204 3,400 2,340 Climbing Indianapolis Center
05:23PM 39.9708 -83.0119 219° Southwest 198 228 6,600 2,460 Climbing Indianapolis Center
05:24PM 40.1016 -82.0043 81° East  Level FlightAware Approximate
05:24PM 39.9608 -82.9178 98° East 264 304 8,800  Level Indianapolis Center
05:25PM 40.1198 -81.7822 83° East  Level FlightAware Approximate
05:25PM 39.9589 -82.8019 91° East 302 348 10,200  Level Indianapolis Center
05:26PM 40.1477 -81.5617 75° East  Level FlightAware Approximate
05:26PM 39.9600 -82.6750 89° East 340 391 12,700  Level Indianapolis Center
05:27PM 39.9767 -82.5461 80° East 360 414 14,500 1,800 Climbing Indianapolis Center
05:28PM 39.9964 -82.4128 79° East 371 427 16,500 1,980 Climbing Indianapolis Center
05:29PM 40.0211 -82.2542 78° East 379 436 18,600 1,740 Climbing Indianapolis Center
05:30PM 40.0417 -82.1106 79° East 396 456 20,200 1,500 Climbing Indianapolis Center
05:32PM 40.0628 -81.9642 79° East 406 467 21,800 1,440 Climbing Indianapolis Center
05:33PM 40.0856 -81.8128 79° East 420 483 23,200 1,260 Climbing Indianapolis Center
05:34PM 40.1086 -81.6589 79° East 433 498 24,500 1,440 Climbing Indianapolis Center
05:34PM 40.1322 -81.4981 79° East 444 511 26,000 1,500 Climbing Cleveland Center
05:35PM 40.1542 -81.3383 80° East 444 511 27,400 1,380 Climbing Cleveland Center
05:36PM 40.1781 -81.1728 79° East 449 517 28,800 780 Climbing Cleveland Center
05:37PM 40.2019 -81.0072 79° East 454 522 29,000 60 Climbing Cleveland Center
05:38PM 40.2253 -80.8414 80° East 454 522 29,000  Level Cleveland Center
05:39PM 40.2464 -80.6783 80° East 454 522 29,000  Level Cleveland Center
05:40PM 40.2653 -80.5178 81° East 449 517 29,000  Level Cleveland Center
05:41PM 40.2711 -80.3572 87° East 444 511 29,000  Level Cleveland Center
05:42PM 40.2769 -80.1967 87° East 439 505 29,000  Level Cleveland Center
05:43PM 40.2825 -80.0225 88° East 468 539 29,000  Level Cleveland Center
05:44PM 40.2900 -79.8428 87° East 478 550 29,000  Level Cleveland Center
05:45PM 40.2947 -79.6631 88° East 484 557 29,000  Level Cleveland Center
05:46PM 40.2994 -79.4861 88° East 489 563 29,000  Level Cleveland Center
05:47PM 40.3061 -79.3089 87° East 489 563 29,000  Level Cleveland Center
05:48PM 40.3081 -79.1319 89° East 484 557 29,000  Level Cleveland Center
05:49PM 40.3119 -78.9547 88° East 479 551 29,000  Level Cleveland Center
05:50PM 40.3175 -78.7778 88° East 479 551 29,000  Level Cleveland Center
05:51PM 40.3147 -78.6036 91° East 479 551 29,000  Level Cleveland Center
05:52PM 40.3156 -78.4183 90° East 484 557 29,000 -1,140 Level Cleveland Center
05:55PM 40.3125 -78.0122 90° East 510 587 25,300 -1,320 Descending New York Center
05:56PM 40.3125 -77.8406 90° East 496 571 24,700 -1,080 Descending New York Center
05:57PM 40.3108 -77.6578 91° East 466 536 23,200 -1,440 Descending New York Center
05:58PM 40.3097 -77.4944 90° East 460 529 21,900 -1,380 Descending New York Center
05:59PM 40.2958 -77.3353 96° East 448 516 20,600 -1,260 Descending New York Center
06:00PM 40.2719 -77.1994 103° East 435 501 19,500 -840 Descending New York Center
06:01PM 40.2453 -77.0339 102° East 419 482 19,000 -540 Descending New York Center
06:02PM 40.2222 -76.8794 101° East 425 489 18,500 -840 Descending New York Center
06:03PM 40.1961 -76.7358 103° East 417 480 17,400 -1,080 Descending New York Center
06:04PM 40.1733 -76.6061 103° East 411 473 16,400 -960 Descending New York Center
06:05PM 40.1511 -76.4686 102° East 396 456 15,500 -1,080 Descending New York Center
06:06PM 40.1278 -76.3369 103° East 391 450 14,500 -1,140 Descending FAA TRACON SMA TRACON (SMA)
06:06PM 40.1211 -76.2853 100° East 389 448 14,200 -1,080 Descending FAA TRACON SMA TRACON (SMA)
06:06PM 40.1181 -76.2433 95° East 370 426 13,800 -1,080 Descending FAA TRACON SMA TRACON (SMA)
06:07PM 40.1139 -76.2053 98° East 345 397 13,500 -900 Descending FAA TRACON SMA TRACON (SMA)
06:07PM 40.1125 -76.1678 93° East 341 392 13,200 -1,080 Descending FAA TRACON SMA TRACON (SMA)
06:07PM 40.1083 -76.1200 96° East 339 390 12,800 -1,080 Descending FAA TRACON SMA TRACON (SMA)
06:08PM 40.1058 -76.0828 95° East 337 388 12,500 -900 Descending FAA TRACON SMA TRACON (SMA)
06:08PM 40.1042 -76.0453 93° East 337 388 12,200 -1,500 Descending FAA TRACON SMA TRACON (SMA)
06:08PM 40.0992 -76.0011 98° East 338 389 11,500 -1,980 Descending FAA TRACON SMA TRACON (SMA)
06:09PM 40.0964 -75.9625 95° East 337 388 10,900 -1,680 Descending FAA TRACON SMA TRACON (SMA)
06:09PM 40.0950 -75.9236 93° East 334 384 10,400 -1,800 Descending FAA TRACON SMA TRACON (SMA)
06:09PM 40.0919 -75.8786 95° East 330 380 9,700 -1,800 Descending FAA TRACON SMA TRACON (SMA)
06:10PM 40.0881 -75.8431 98° East 324 373 9,200 -1,500 Descending FAA TRACON SMA TRACON (SMA)
06:10PM 40.0869 -75.8067 92° East 320 368 8,700 -1,680 Descending FAA TRACON SMA TRACON (SMA)
06:10PM 40.0836 -75.7639 96° East 314 361 8,100 -1,200 Descending FAA TRACON SMA TRACON (SMA)
06:11PM 40.0814 -75.7297 95° East 308 354 7,900 -480 Descending FAA TRACON SMA TRACON (SMA)
06:11PM 40.0800 -75.6986 93° East 283 326 7,800 -480 Descending FAA TRACON SMA TRACON (SMA)
06:11PM 40.0783 -75.6619 93° East 262 302 7,600 -600 Descending FAA TRACON SMA TRACON (SMA)
06:12PM 40.0772 -75.6344 93° East 253 291 7,400 -780 Descending FAA TRACON SMA TRACON (SMA)
06:12PM 40.0758 -75.6061 94° East 249 287 7,100 -600 Descending FAA TRACON SMA TRACON (SMA)
06:12PM 40.0719 -75.5742 99° East 242 278 7,000 -300 Descending FAA TRACON SMA TRACON (SMA)
06:13PM 40.0644 -75.5481 111° Southeast 241 277 6,900 -600 Descending FAA TRACON SMA TRACON (SMA)
06:13PM 40.0564 -75.5239 114° Southeast 236 272 6,600 -1,200 Descending FAA TRACON SMA TRACON (SMA)
06:13PM 40.0381 -75.5025 138° Southeast 233 268 6,100 -900 Descending FAA TRACON SMA TRACON (SMA)
06:14PM 40.0194 -75.4944 162° South 232 267 6,000 -180 Descending FAA TRACON SMA TRACON (SMA)
06:14PM 40.0014 -75.4856 159° South 232 267 6,000  Level FAA TRACON SMA TRACON (SMA)
06:14PM 39.9778 -75.4781 166° South 227 261 6,000  Level FAA TRACON SMA TRACON (SMA)
06:15PM 39.9592 -75.4706 163° South 227 261 6,000  Level FAA TRACON SMA TRACON (SMA)
06:15PM 39.9403 -75.4633 164° South 229 264 6,000  Level FAA TRACON SMA TRACON (SMA)
06:15PM 39.9169 -75.4653 184° South 228 262 6,000  Level FAA TRACON SMA TRACON (SMA)
06:16PM 39.9058 -75.4836 232° Southwest 211 243 6,000 -300 Level FAA TRACON SMA TRACON (SMA)
06:16PM 39.8992 -75.5058 249° West 213 245 5,800 -900 Descending FAA TRACON SMA TRACON (SMA)
06:16PM 39.8908 -75.5331 248° West 211 243 5,400 -1,200 Descending FAA TRACON SMA TRACON (SMA)
06:17PM 39.8831 -75.5542 244° Southwest 210 242 5,000 -1,080 Descending FAA TRACON SMA TRACON (SMA)
06:17PM 39.8769 -75.5750 249° West 208 239 4,700 -1,200 Descending FAA TRACON SMA TRACON (SMA)
06:17PM 39.8597 -75.5936 220° Southwest 209 241 4,200 -1,080 Descending FAA TRACON SMA TRACON (SMA)
06:18PM 39.8403 -75.5906 173° South 221 254 4,000 -300 Descending FAA TRACON SMA TRACON (SMA)
06:18PM 39.8250 -75.5789 150° Southeast 228 262 4,000  Level FAA TRACON SMA TRACON (SMA)
06:18PM 39.8194 -75.5478 103° East 212 244 4,000 -300 Level FAA TRACON SMA TRACON (SMA)
06:19PM 39.8175 -75.5253 96° East 203 234 3,800 -780 Descending FAA TRACON SMA TRACON (SMA)
06:19PM 39.8161 -75.5053 95° East 197 227 3,500 -1,200 Descending FAA TRACON SMA TRACON (SMA)
06:19PM 39.8197 -75.4775 80° East 194 223 3,000 -1,080 Descending FAA TRACON SMA TRACON (SMA)
06:20PM 39.8242 -75.4572 74° East 193 222 2,800 -600 Descending FAA TRACON SMA TRACON (SMA)
06:20PM 39.8281 -75.4381 75° East 192 221 2,600 -900 Descending FAA TRACON SMA TRACON (SMA)
06:20PM 39.8336 -75.4106 75° East 193 222 2,200 -1,020 Descending FAA TRACON SMA TRACON (SMA)
06:21PM 39.8375 -75.3894 77° East 191 220 1,900 -1,020 Descending FAA TRACON SMA TRACON (SMA)
06:21PM 39.8425 -75.3661 74° East 188 216 1,500 -1,200 Descending FAA TRACON SMA TRACON (SMA)